sensor_id;sensor_type;location;lat;lon;timestamp;P1;durP1;ratioP1;P2;durP2;ratioP2
37067;SDS011;22982;42.848;25.468;2023-09-08T00:03:15;10.98;;;7.40;;
37067;SDS011;22982;42.848;25.468;2023-09-08T00:08:19;16.00;;;8.00;;
37067;SDS011;22982;42.848;25.468;2023-09-08T00:13:21;16.95;;;6.95;;
37067;SDS011;22982;42.848;25.468;2023-09-08T00:18:24;11.38;;;7.25;;
37067;SDS011;22982;42.848;25.468;2023-09-08T00:23:27;10.23;;;7.95;;
37067;SDS011;22982;42.848;25.468;2023-09-08T00:28:30;12.05;;;7.75;;
37067;SDS011;22982;42.848;25.468;2023-09-08T00:33:33;12.27;;;7.57;;
37067;SDS011;22982;42.848;25.468;2023-09-08T00:38:36;13.65;;;7.35;;
37067;SDS011;22982;42.848;25.468;2023-09-08T00:43:39;14.95;;;6.97;;
37067;SDS011;22982;42.848;25.468;2023-09-08T00:48:41;13.18;;;7.97;;
37067;SDS011;22982;42.848;25.468;2023-09-08T00:53:45;15.57;;;6.85;;
37067;SDS011;22982;42.848;25.468;2023-09-08T00:58:47;13.77;;;7.18;;
37067;SDS011;22982;42.848;25.468;2023-09-08T01:03:50;9.77;;;7.20;;
37067;SDS011;22982;42.848;25.468;2023-09-08T01:08:53;14.00;;;7.30;;
37067;SDS011;22982;42.848;25.468;2023-09-08T01:13:58;12.00;;;6.97;;
37067;SDS011;22982;42.848;25.468;2023-09-08T01:19:01;8.77;;;7.15;;
37067;SDS011;22982;42.848;25.468;2023-09-08T01:24:18;12.85;;;6.90;;
37067;SDS011;22982;42.848;25.468;2023-09-08T01:29:24;12.48;;;6.78;;
37067;SDS011;22982;42.848;25.468;2023-09-08T01:34:29;16.77;;;7.28;;
37067;SDS011;22982;42.848;25.468;2023-09-08T01:39:31;11.57;;;6.68;;
37067;SDS011;22982;42.848;25.468;2023-09-08T01:44:34;14.63;;;7.20;;
37067;SDS011;22982;42.848;25.468;2023-09-08T01:49:38;10.82;;;6.95;;
37067;SDS011;22982;42.848;25.468;2023-09-08T01:54:41;11.13;;;6.40;;
37067;SDS011;22982;42.848;25.468;2023-09-08T01:59:43;10.30;;;6.38;;
37067;SDS011;22982;42.848;25.468;2023-09-08T02:04:50;11.95;;;6.28;;
37067;SDS011;22982;42.848;25.468;2023-09-08T02:09:52;12.93;;;6.95;;
37067;SDS011;22982;42.848;25.468;2023-09-08T02:14:55;8.15;;;5.93;;
37067;SDS011;22982;42.848;25.468;2023-09-08T02:19:58;11.63;;;6.63;;
37067;SDS011;22982;42.848;25.468;2023-09-08T02:25:00;12.13;;;6.82;;
37067;SDS011;22982;42.848;25.468;2023-09-08T02:30:04;12.30;;;6.85;;
37067;SDS011;22982;42.848;25.468;2023-09-08T02:35:07;15.45;;;6.47;;
37067;SDS011;22982;42.848;25.468;2023-09-08T02:40:11;9.45;;;6.28;;
37067;SDS011;22982;42.848;25.468;2023-09-08T02:45:13;13.63;;;6.55;;
37067;SDS011;22982;42.848;25.468;2023-09-08T02:50:17;13.07;;;6.30;;
37067;SDS011;22982;42.848;25.468;2023-09-08T02:55:19;11.77;;;6.47;;
37067;SDS011;22982;42.848;25.468;2023-09-08T03:00:22;14.55;;;6.47;;
37067;SDS011;22982;42.848;25.468;2023-09-08T03:05:25;10.90;;;6.28;;
37067;SDS011;22982;42.848;25.468;2023-09-08T03:10:28;9.88;;;6.18;;
37067;SDS011;22982;42.848;25.468;2023-09-08T03:15:31;8.60;;;5.75;;
37067;SDS011;22982;42.848;25.468;2023-09-08T03:20:37;12.18;;;5.43;;
37067;SDS011;22982;42.848;25.468;2023-09-08T03:25:39;10.70;;;5.65;;
37067;SDS011;22982;42.848;25.468;2023-09-08T03:30:42;11.30;;;6.22;;
37067;SDS011;22982;42.848;25.468;2023-09-08T03:35:44;11.10;;;6.85;;
37067;SDS011;22982;42.848;25.468;2023-09-08T03:40:47;13.38;;;6.47;;
37067;SDS011;22982;42.848;25.468;2023-09-08T03:45:51;7.78;;;6.18;;
37067;SDS011;22982;42.848;25.468;2023-09-08T03:50:53;11.10;;;6.47;;
37067;SDS011;22982;42.848;25.468;2023-09-08T03:55:57;9.52;;;6.22;;
37067;SDS011;22982;42.848;25.468;2023-09-08T04:01:00;9.10;;;6.43;;
37067;SDS011;22982;42.848;25.468;2023-09-08T04:06:03;9.55;;;5.72;;
37067;SDS011;22982;42.848;25.468;2023-09-08T04:11:07;10.90;;;6.47;;
37067;SDS011;22982;42.848;25.468;2023-09-08T04:16:09;15.65;;;6.25;;
37067;SDS011;22982;42.848;25.468;2023-09-08T04:21:13;9.48;;;6.05;;
37067;SDS011;22982;42.848;25.468;2023-09-08T04:26:16;14.13;;;6.18;;
37067;SDS011;22982;42.848;25.468;2023-09-08T04:31:19;14.68;;;7.60;;
37067;SDS011;22982;42.848;25.468;2023-09-08T04:36:24;10.50;;;6.03;;
37067;SDS011;22982;42.848;25.468;2023-09-08T04:41:27;9.80;;;6.80;;
37067;SDS011;22982;42.848;25.468;2023-09-08T04:46:30;10.00;;;5.55;;
37067;SDS011;22982;42.848;25.468;2023-09-08T04:51:34;8.05;;;6.03;;
37067;SDS011;22982;42.848;25.468;2023-09-08T04:56:37;7.15;;;6.05;;
37067;SDS011;22982;42.848;25.468;2023-09-08T05:01:41;9.73;;;6.18;;
37067;SDS011;22982;42.848;25.468;2023-09-08T05:06:46;11.55;;;5.75;;
37067;SDS011;22982;42.848;25.468;2023-09-08T05:11:50;16.23;;;5.68;;
37067;SDS011;22982;42.848;25.468;2023-09-08T05:16:54;11.95;;;6.28;;
37067;SDS011;22982;42.848;25.468;2023-09-08T05:22:01;10.27;;;5.85;;
37067;SDS011;22982;42.848;25.468;2023-09-08T05:27:04;8.60;;;6.03;;
37067;SDS011;22982;42.848;25.468;2023-09-08T05:32:07;8.55;;;6.28;;
37067;SDS011;22982;42.848;25.468;2023-09-08T05:37:10;10.43;;;5.90;;
37067;SDS011;22982;42.848;25.468;2023-09-08T05:42:13;7.65;;;5.07;;
37067;SDS011;22982;42.848;25.468;2023-09-08T05:47:16;9.55;;;4.65;;
37067;SDS011;22982;42.848;25.468;2023-09-08T05:52:20;7.53;;;4.00;;
37067;SDS011;22982;42.848;25.468;2023-09-08T05:57:23;5.70;;;3.65;;
37067;SDS011;22982;42.848;25.468;2023-09-08T06:02:25;4.00;;;3.60;;
37067;SDS011;22982;42.848;25.468;2023-09-08T06:07:28;9.57;;;4.47;;
37067;SDS011;22982;42.848;25.468;2023-09-08T06:12:31;4.47;;;3.60;;
37067;SDS011;22982;42.848;25.468;2023-09-08T06:17:33;8.73;;;4.13;;
37067;SDS011;22982;42.848;25.468;2023-09-08T06:22:37;5.22;;;3.63;;
37067;SDS011;22982;42.848;25.468;2023-09-08T06:27:39;6.68;;;4.32;;
37067;SDS011;22982;42.848;25.468;2023-09-08T06:32:42;6.68;;;3.60;;
37067;SDS011;22982;42.848;25.468;2023-09-08T06:37:45;6.45;;;3.72;;
37067;SDS011;22982;42.848;25.468;2023-09-08T06:42:47;6.57;;;4.10;;
37067;SDS011;22982;42.848;25.468;2023-09-08T06:48:09;6.85;;;4.03;;
37067;SDS011;22982;42.848;25.468;2023-09-08T06:53:12;8.70;;;3.70;;
37067;SDS011;22982;42.848;25.468;2023-09-08T06:58:16;6.68;;;3.90;;
37067;SDS011;22982;42.848;25.468;2023-09-08T07:03:19;6.45;;;3.78;;
37067;SDS011;22982;42.848;25.468;2023-09-08T07:08:21;6.38;;;3.90;;
37067;SDS011;22982;42.848;25.468;2023-09-08T07:13:24;7.00;;;4.10;;
37067;SDS011;22982;42.848;25.468;2023-09-08T07:18:27;6.72;;;4.10;;
37067;SDS011;22982;42.848;25.468;2023-09-08T07:23:30;7.28;;;3.97;;
37067;SDS011;22982;42.848;25.468;2023-09-08T07:28:33;5.50;;;3.90;;
37067;SDS011;22982;42.848;25.468;2023-09-08T07:33:40;8.90;;;4.18;;
37067;SDS011;22982;42.848;25.468;2023-09-08T07:38:43;7.63;;;3.90;;
37067;SDS011;22982;42.848;25.468;2023-09-08T07:43:47;8.63;;;3.60;;
37067;SDS011;22982;42.848;25.468;2023-09-08T07:48:53;12.00;;;4.07;;
37067;SDS011;22982;42.848;25.468;2023-09-08T07:53:56;13.15;;;4.45;;
37067;SDS011;22982;42.848;25.468;2023-09-08T07:58:59;8.52;;;4.00;;
37067;SDS011;22982;42.848;25.468;2023-09-08T08:04:02;6.32;;;4.07;;
37067;SDS011;22982;42.848;25.468;2023-09-08T08:09:06;5.75;;;3.90;;
37067;SDS011;22982;42.848;25.468;2023-09-08T08:14:08;6.03;;;3.72;;
37067;SDS011;22982;42.848;25.468;2023-09-08T08:19:11;5.95;;;3.70;;
37067;SDS011;22982;42.848;25.468;2023-09-08T08:24:14;5.43;;;3.80;;
37067;SDS011;22982;42.848;25.468;2023-09-08T08:29:18;7.63;;;3.83;;
37067;SDS011;22982;42.848;25.468;2023-09-08T08:34:21;7.32;;;3.95;;
37067;SDS011;22982;42.848;25.468;2023-09-08T08:39:24;8.88;;;4.00;;
37067;SDS011;22982;42.848;25.468;2023-09-08T08:44:26;6.78;;;3.53;;
37067;SDS011;22982;42.848;25.468;2023-09-08T08:49:30;5.65;;;3.80;;
37067;SDS011;22982;42.848;25.468;2023-09-08T08:54:34;6.13;;;3.97;;
37067;SDS011;22982;42.848;25.468;2023-09-08T08:59:41;7.55;;;3.65;;
37067;SDS011;22982;42.848;25.468;2023-09-08T09:04:44;5.40;;;3.45;;
37067;SDS011;22982;42.848;25.468;2023-09-08T09:09:49;4.50;;;4.00;;
37067;SDS011;22982;42.848;25.468;2023-09-08T09:14:54;4.97;;;3.72;;
37067;SDS011;22982;42.848;25.468;2023-09-08T09:20:16;7.47;;;4.35;;
37067;SDS011;22982;42.848;25.468;2023-09-08T09:25:23;9.90;;;4.22;;
37067;SDS011;22982;42.848;25.468;2023-09-08T09:30:27;4.82;;;4.22;;
37067;SDS011;22982;42.848;25.468;2023-09-08T09:35:52;8.02;;;5.30;;
37067;SDS011;22982;42.848;25.468;2023-09-08T09:40:55;7.78;;;4.68;;
37067;SDS011;22982;42.848;25.468;2023-09-08T09:45:59;8.63;;;5.32;;
37067;SDS011;22982;42.848;25.468;2023-09-08T09:51:15;6.97;;;5.38;;
37067;SDS011;22982;42.848;25.468;2023-09-08T09:56:19;8.02;;;6.13;;
37067;SDS011;22982;42.848;25.468;2023-09-08T10:01:24;7.05;;;5.28;;
37067;SDS011;22982;42.848;25.468;2023-09-08T10:06:27;9.98;;;4.65;;
37067;SDS011;22982;42.848;25.468;2023-09-08T10:11:34;7.07;;;4.50;;
37067;SDS011;22982;42.848;25.468;2023-09-08T10:16:45;9.48;;;4.95;;
37067;SDS011;22982;42.848;25.468;2023-09-08T10:21:51;9.73;;;4.65;;
37067;SDS011;22982;42.848;25.468;2023-09-08T10:32:09;5.50;;;4.78;;
37067;SDS011;22982;42.848;25.468;2023-09-08T10:37:21;5.45;;;3.67;;
37067;SDS011;22982;42.848;25.468;2023-09-08T10:42:43;8.00;;;4.13;;
37067;SDS011;22982;42.848;25.468;2023-09-08T11:03:44;6.60;;;4.28;;
37067;SDS011;22982;42.848;25.468;2023-09-08T11:08:48;5.95;;;3.92;;
37067;SDS011;22982;42.848;25.468;2023-09-08T11:13:58;4.75;;;3.47;;
37067;SDS011;22982;42.848;25.468;2023-09-08T11:19:03;8.07;;;4.18;;
37067;SDS011;22982;42.848;25.468;2023-09-08T11:24:07;8.10;;;4.05;;
37067;SDS011;22982;42.848;25.468;2023-09-08T11:29:11;7.68;;;4.13;;
37067;SDS011;22982;42.848;25.468;2023-09-08T11:34:13;7.75;;;4.03;;
37067;SDS011;22982;42.848;25.468;2023-09-08T11:39:18;6.88;;;4.40;;
37067;SDS011;22982;42.848;25.468;2023-09-08T11:44:21;10.77;;;4.03;;
37067;SDS011;22982;42.848;25.468;2023-09-08T11:49:24;7.88;;;4.35;;
37067;SDS011;22982;42.848;25.468;2023-09-08T11:54:27;7.32;;;4.05;;
37067;SDS011;22982;42.848;25.468;2023-09-08T11:59:32;7.20;;;4.63;;
37067;SDS011;22982;42.848;25.468;2023-09-08T12:04:35;5.93;;;4.35;;
37067;SDS011;22982;42.848;25.468;2023-09-08T12:09:39;7.57;;;4.25;;
37067;SDS011;22982;42.848;25.468;2023-09-08T12:14:41;4.85;;;3.88;;
37067;SDS011;22982;42.848;25.468;2023-09-08T12:19:49;7.22;;;4.38;;
37067;SDS011;22982;42.848;25.468;2023-09-08T12:30:02;6.80;;;4.10;;
37067;SDS011;22982;42.848;25.468;2023-09-08T12:35:06;6.90;;;4.03;;
37067;SDS011;22982;42.848;25.468;2023-09-08T12:40:09;12.13;;;5.20;;
37067;SDS011;22982;42.848;25.468;2023-09-08T12:45:12;8.02;;;4.32;;
37067;SDS011;22982;42.848;25.468;2023-09-08T12:50:16;7.15;;;4.00;;
37067;SDS011;22982;42.848;25.468;2023-09-08T12:55:19;5.30;;;3.92;;
37067;SDS011;22982;42.848;25.468;2023-09-08T13:00:22;6.85;;;4.53;;
37067;SDS011;22982;42.848;25.468;2023-09-08T13:05:25;7.28;;;3.97;;
37067;SDS011;22982;42.848;25.468;2023-09-08T13:10:28;6.53;;;5.60;;
37067;SDS011;22982;42.848;25.468;2023-09-08T13:15:33;5.25;;;4.35;;
37067;SDS011;22982;42.848;25.468;2023-09-08T13:20:35;5.63;;;4.35;;
37067;SDS011;22982;42.848;25.468;2023-09-08T13:25:38;7.45;;;4.45;;
37067;SDS011;22982;42.848;25.468;2023-09-08T13:30:44;6.80;;;4.05;;
37067;SDS011;22982;42.848;25.468;2023-09-08T13:35:46;7.30;;;4.25;;
37067;SDS011;22982;42.848;25.468;2023-09-08T13:40:49;5.97;;;3.95;;
37067;SDS011;22982;42.848;25.468;2023-09-08T13:45:51;9.18;;;4.40;;
37067;SDS011;22982;42.848;25.468;2023-09-08T13:50:55;9.40;;;6.38;;
37067;SDS011;22982;42.848;25.468;2023-09-08T13:55:59;10.07;;;4.97;;
37067;SDS011;22982;42.848;25.468;2023-09-08T14:01:05;7.18;;;5.07;;
37067;SDS011;22982;42.848;25.468;2023-09-08T14:06:13;8.43;;;4.50;;
37067;SDS011;22982;42.848;25.468;2023-09-08T14:11:22;8.10;;;4.22;;
37067;SDS011;22982;42.848;25.468;2023-09-08T14:16:43;6.45;;;4.65;;
37067;SDS011;22982;42.848;25.468;2023-09-08T14:21:46;9.23;;;4.38;;
37067;SDS011;22982;42.848;25.468;2023-09-08T14:26:48;7.90;;;4.15;;
37067;SDS011;22982;42.848;25.468;2023-09-08T14:31:53;6.70;;;3.50;;
37067;SDS011;22982;42.848;25.468;2023-09-08T14:36:55;5.75;;;3.83;;
37067;SDS011;22982;42.848;25.468;2023-09-08T14:41:57;8.85;;;4.50;;
37067;SDS011;22982;42.848;25.468;2023-09-08T14:47:01;10.75;;;3.95;;
37067;SDS011;22982;42.848;25.468;2023-09-08T14:52:03;7.68;;;4.68;;
37067;SDS011;22982;42.848;25.468;2023-09-08T14:57:06;7.57;;;4.07;;
37067;SDS011;22982;42.848;25.468;2023-09-08T15:02:08;8.80;;;4.10;;
37067;SDS011;22982;42.848;25.468;2023-09-08T15:07:11;6.10;;;4.53;;
37067;SDS011;22982;42.848;25.468;2023-09-08T15:12:16;13.30;;;4.35;;
37067;SDS011;22982;42.848;25.468;2023-09-08T15:17:18;7.32;;;4.07;;
37067;SDS011;22982;42.848;25.468;2023-09-08T15:22:22;8.48;;;5.13;;
37067;SDS011;22982;42.848;25.468;2023-09-08T15:27:24;10.32;;;4.03;;
37067;SDS011;22982;42.848;25.468;2023-09-08T15:32:28;12.02;;;5.03;;
37067;SDS011;22982;42.848;25.468;2023-09-08T15:37:30;23.13;;;13.30;;
37067;SDS011;22982;42.848;25.468;2023-09-08T15:42:34;55.85;;;20.55;;
37067;SDS011;22982;42.848;25.468;2023-09-08T15:47:37;11.10;;;4.20;;
37067;SDS011;22982;42.848;25.468;2023-09-08T15:52:40;10.27;;;3.80;;
37067;SDS011;22982;42.848;25.468;2023-09-08T15:57:43;11.27;;;4.97;;
37067;SDS011;22982;42.848;25.468;2023-09-08T16:02:45;9.90;;;4.15;;
37067;SDS011;22982;42.848;25.468;2023-09-08T16:07:48;10.55;;;4.13;;
37067;SDS011;22982;42.848;25.468;2023-09-08T16:12:51;6.75;;;3.97;;
37067;SDS011;22982;42.848;25.468;2023-09-08T16:17:56;8.45;;;4.07;;
37067;SDS011;22982;42.848;25.468;2023-09-08T16:23:02;12.20;;;4.15;;
37067;SDS011;22982;42.848;25.468;2023-09-08T16:28:05;6.32;;;3.92;;
37067;SDS011;22982;42.848;25.468;2023-09-08T16:33:08;9.82;;;4.50;;
37067;SDS011;22982;42.848;25.468;2023-09-08T16:38:11;8.65;;;5.38;;
37067;SDS011;22982;42.848;25.468;2023-09-08T16:43:17;7.82;;;4.20;;
37067;SDS011;22982;42.848;25.468;2023-09-08T16:48:20;10.65;;;5.82;;
37067;SDS011;22982;42.848;25.468;2023-09-08T16:53:23;7.78;;;5.40;;
37067;SDS011;22982;42.848;25.468;2023-09-08T16:58:25;10.52;;;5.18;;
37067;SDS011;22982;42.848;25.468;2023-09-08T17:03:28;5.93;;;5.00;;
37067;SDS011;22982;42.848;25.468;2023-09-08T17:08:31;9.98;;;4.80;;
37067;SDS011;22982;42.848;25.468;2023-09-08T17:13:35;4.65;;;4.15;;
37067;SDS011;22982;42.848;25.468;2023-09-08T17:18:38;8.90;;;4.47;;
37067;SDS011;22982;42.848;25.468;2023-09-08T17:23:41;11.07;;;6.30;;
37067;SDS011;22982;42.848;25.468;2023-09-08T17:28:44;10.07;;;5.35;;
37067;SDS011;22982;42.848;25.468;2023-09-08T17:33:46;8.95;;;4.97;;
37067;SDS011;22982;42.848;25.468;2023-09-08T17:38:48;10.45;;;5.82;;
37067;SDS011;22982;42.848;25.468;2023-09-08T17:43:51;8.00;;;4.55;;
37067;SDS011;22982;42.848;25.468;2023-09-08T17:48:54;9.07;;;4.85;;
37067;SDS011;22982;42.848;25.468;2023-09-08T17:53:57;10.55;;;4.88;;
37067;SDS011;22982;42.848;25.468;2023-09-08T17:59:02;9.20;;;4.60;;
37067;SDS011;22982;42.848;25.468;2023-09-08T18:04:05;11.07;;;5.75;;
37067;SDS011;22982;42.848;25.468;2023-09-08T18:09:08;9.48;;;5.40;;
37067;SDS011;22982;42.848;25.468;2023-09-08T18:14:12;7.82;;;5.82;;
37067;SDS011;22982;42.848;25.468;2023-09-08T18:19:15;10.55;;;5.50;;
37067;SDS011;22982;42.848;25.468;2023-09-08T18:24:18;8.05;;;5.82;;
37067;SDS011;22982;42.848;25.468;2023-09-08T18:29:21;6.05;;;5.22;;
37067;SDS011;22982;42.848;25.468;2023-09-08T18:34:23;7.95;;;5.50;;
37067;SDS011;22982;42.848;25.468;2023-09-08T18:39:27;9.60;;;6.15;;
37067;SDS011;22982;42.848;25.468;2023-09-08T18:44:29;7.43;;;5.78;;
37067;SDS011;22982;42.848;25.468;2023-09-08T18:49:44;7.78;;;5.55;;
37067;SDS011;22982;42.848;25.468;2023-09-08T18:54:47;11.25;;;5.95;;
37067;SDS011;22982;42.848;25.468;2023-09-08T18:59:50;12.00;;;6.05;;
37067;SDS011;22982;42.848;25.468;2023-09-08T19:04:53;8.77;;;5.32;;
37067;SDS011;22982;42.848;25.468;2023-09-08T19:09:55;12.30;;;6.15;;
37067;SDS011;22982;42.848;25.468;2023-09-08T19:14:59;7.88;;;5.82;;
37067;SDS011;22982;42.848;25.468;2023-09-08T19:20:01;7.93;;;6.43;;
37067;SDS011;22982;42.848;25.468;2023-09-08T19:25:05;12.20;;;6.22;;
37067;SDS011;22982;42.848;25.468;2023-09-08T19:30:09;10.13;;;5.50;;
37067;SDS011;22982;42.848;25.468;2023-09-08T19:35:13;10.13;;;5.63;;
37067;SDS011;22982;42.848;25.468;2023-09-08T19:40:16;8.27;;;5.90;;
37067;SDS011;22982;42.848;25.468;2023-09-08T19:45:19;9.32;;;6.05;;
37067;SDS011;22982;42.848;25.468;2023-09-08T19:50:21;10.90;;;5.93;;
37067;SDS011;22982;42.848;25.468;2023-09-08T19:55:25;10.00;;;6.63;;
37067;SDS011;22982;42.848;25.468;2023-09-08T20:00:27;13.95;;;6.20;;
37067;SDS011;22982;42.848;25.468;2023-09-08T20:05:29;12.32;;;6.13;;
37067;SDS011;22982;42.848;25.468;2023-09-08T20:10:33;12.40;;;6.68;;
37067;SDS011;22982;42.848;25.468;2023-09-08T20:15:35;10.23;;;5.80;;
37067;SDS011;22982;42.848;25.468;2023-09-08T20:20:39;10.75;;;5.78;;
37067;SDS011;22982;42.848;25.468;2023-09-08T20:25:42;8.45;;;5.80;;
37067;SDS011;22982;42.848;25.468;2023-09-08T20:30:49;10.02;;;6.13;;
37067;SDS011;22982;42.848;25.468;2023-09-08T20:36:06;13.00;;;6.95;;
37067;SDS011;22982;42.848;25.468;2023-09-08T20:41:09;8.48;;;5.55;;
37067;SDS011;22982;42.848;25.468;2023-09-08T20:46:15;9.93;;;5.82;;
37067;SDS011;22982;42.848;25.468;2023-09-08T20:51:18;13.95;;;6.30;;
37067;SDS011;22982;42.848;25.468;2023-09-08T20:56:25;12.50;;;6.50;;
37067;SDS011;22982;42.848;25.468;2023-09-08T21:01:27;9.88;;;6.18;;
37067;SDS011;22982;42.848;25.468;2023-09-08T21:06:29;10.15;;;6.28;;
37067;SDS011;22982;42.848;25.468;2023-09-08T21:11:33;8.48;;;6.47;;
37067;SDS011;22982;42.848;25.468;2023-09-08T21:16:35;10.32;;;6.47;;
37067;SDS011;22982;42.848;25.468;2023-09-08T21:21:38;12.70;;;6.43;;
37067;SDS011;22982;42.848;25.468;2023-09-08T21:26:41;13.43;;;5.78;;
37067;SDS011;22982;42.848;25.468;2023-09-08T21:31:44;10.07;;;6.65;;
37067;SDS011;22982;42.848;25.468;2023-09-08T21:36:50;7.82;;;5.95;;
37067;SDS011;22982;42.848;25.468;2023-09-08T21:41:53;10.30;;;6.82;;
37067;SDS011;22982;42.848;25.468;2023-09-08T21:46:56;14.73;;;7.03;;
37067;SDS011;22982;42.848;25.468;2023-09-08T21:51:59;12.75;;;6.15;;
37067;SDS011;22982;42.848;25.468;2023-09-08T21:57:01;8.35;;;5.95;;
37067;SDS011;22982;42.848;25.468;2023-09-08T22:02:04;12.18;;;6.28;;
37067;SDS011;22982;42.848;25.468;2023-09-08T22:07:06;12.05;;;6.25;;
37067;SDS011;22982;42.848;25.468;2023-09-08T22:12:14;12.25;;;6.43;;
37067;SDS011;22982;42.848;25.468;2023-09-08T22:17:17;10.88;;;6.40;;
37067;SDS011;22982;42.848;25.468;2023-09-08T22:22:21;12.70;;;6.45;;
37067;SDS011;22982;42.848;25.468;2023-09-08T22:27:23;11.75;;;6.00;;
37067;SDS011;22982;42.848;25.468;2023-09-08T22:32:26;12.73;;;6.97;;
37067;SDS011;22982;42.848;25.468;2023-09-08T22:37:29;10.68;;;5.90;;
37067;SDS011;22982;42.848;25.468;2023-09-08T22:42:32;9.15;;;5.30;;
37067;SDS011;22982;42.848;25.468;2023-09-08T22:47:34;7.40;;;6.22;;
37067;SDS011;22982;42.848;25.468;2023-09-08T22:52:38;9.05;;;6.28;;
37067;SDS011;22982;42.848;25.468;2023-09-08T22:57:45;10.27;;;6.18;;
37067;SDS011;22982;42.848;25.468;2023-09-08T23:02:49;9.52;;;6.35;;
37067;SDS011;22982;42.848;25.468;2023-09-08T23:07:52;9.38;;;5.97;;
37067;SDS011;22982;42.848;25.468;2023-09-08T23:12:55;7.72;;;5.47;;
37067;SDS011;22982;42.848;25.468;2023-09-08T23:17:57;10.63;;;5.85;;
37067;SDS011;22982;42.848;25.468;2023-09-08T23:23:00;7.75;;;5.93;;
37067;SDS011;22982;42.848;25.468;2023-09-08T23:28:02;9.88;;;5.65;;
37067;SDS011;22982;42.848;25.468;2023-09-08T23:33:06;7.57;;;5.78;;
37067;SDS011;22982;42.848;25.468;2023-09-08T23:38:08;10.05;;;5.97;;
37067;SDS011;22982;42.848;25.468;2023-09-08T23:43:10;10.07;;;6.18;;
37067;SDS011;22982;42.848;25.468;2023-09-08T23:48:14;12.23;;;5.43;;
37067;SDS011;22982;42.848;25.468;2023-09-08T23:53:16;8.10;;;5.60;;
37067;SDS011;22982;42.848;25.468;2023-09-08T23:58:20;11.50;;;5.75;;
